Dachuan Airport


Codes: ZUDX/DAX
Name: Dachuan Airport
City: Dazhou
Country: China
Elevation: 0 ft.
Wikipedia:

Photos at Dachuan Airport


   Photos courtesy of SpottingLog. You can add your own sightings and photos by signing up for a free trial today.



No photos found.

Weather at Dachuan Airport


Time (UTC)DescriptionTempratureWindCloud coverageVisibilityPressureHumidity
21-Jun-2024 12:00Overcast Clouds24°C2 mph, SE98%10000m1000hPa95%
21-Jun-2024 15:00Scattered Clouds23°C0 mph, SW45%10000m1002hPa95%
21-Jun-2024 18:00Few Clouds22°C0 mph, E24%10000m1002hPa95%
21-Jun-2024 21:00Scattered Clouds22°C2 mph, E50%10000m1002hPa95%
22-Jun-2024 00:00Broken Clouds24°C2 mph, NE72%10000m1003hPa88%
22-Jun-2024 03:00Overcast Clouds25°C2 mph, E97%10000m1004hPa83%
22-Jun-2024 06:00Light Rain25°C4 mph, NE98%10000m1003hPa89%
22-Jun-2024 09:00Overcast Clouds25°C2 mph, N100%10000m1002hPa87%
22-Jun-2024 12:00Overcast Clouds24°C2 mph, E99%10000m1003hPa87%
22-Jun-2024 15:00Broken Clouds23°C2 mph, NE84%10000m1005hPa88%
22-Jun-2024 18:00Broken Clouds23°C2 mph, NE84%10000m1004hPa86%
22-Jun-2024 21:00Overcast Clouds23°C2 mph, N93%10000m1004hPa87%
23-Jun-2024 00:00Overcast Clouds25°C0 mph, E95%10000m1005hPa79%
23-Jun-2024 03:00Overcast Clouds27°C2 mph, NE91%10000m1005hPa71%
23-Jun-2024 06:00Overcast Clouds25°C2 mph, SE96%10000m1004hPa82%
23-Jun-2024 09:00Overcast Clouds25°C2 mph, E100%10000m1003hPa80%
23-Jun-2024 12:00Overcast Clouds24°C2 mph, NE100%10000m1004hPa78%
23-Jun-2024 15:00Overcast Clouds24°C2 mph, E100%10000m1005hPa76%
23-Jun-2024 18:00Overcast Clouds24°C2 mph, N100%10000m1005hPa77%
23-Jun-2024 21:00Overcast Clouds23°C4 mph, NE100%10000m1006hPa77%
24-Jun-2024 00:00Overcast Clouds23°C0 mph, S100%10000m1007hPa79%
24-Jun-2024 03:00Overcast Clouds27°C2 mph, S100%10000m1008hPa66%
24-Jun-2024 06:00Overcast Clouds31°C4 mph, SW100%10000m1007hPa54%
24-Jun-2024 09:00Overcast Clouds31°C7 mph, SW100%10000m1005hPa57%
24-Jun-2024 12:00Light Rain25°C7 mph, SW100%10000m1008hPa81%
24-Jun-2024 15:00Light Rain22°C4 mph, NE100%10000m1010hPa89%
24-Jun-2024 18:00Overcast Clouds22°C2 mph, E100%10000m1009hPa92%
24-Jun-2024 21:00Broken Clouds21°C2 mph, NE73%10000m1009hPa94%
25-Jun-2024 00:00Scattered Clouds24°C2 mph, NE37%10000m1010hPa85%
25-Jun-2024 03:00Clear Sky29°C2 mph, SE1%10000m1010hPa66%
25-Jun-2024 06:00Clear Sky32°C2 mph, S6%10000m1008hPa55%
25-Jun-2024 09:00Few Clouds32°C4 mph, S11%10000m1006hPa52%
25-Jun-2024 12:00Clear Sky27°C2 mph, SW5%10000m1007hPa67%
25-Jun-2024 15:00Clear Sky25°C4 mph, SW0%10000m1009hPa74%
25-Jun-2024 18:00Few Clouds24°C2 mph, E21%10000m1008hPa78%
25-Jun-2024 21:00Scattered Clouds23°C2 mph, E47%10000m1008hPa83%
26-Jun-2024 00:00Broken Clouds26°C2 mph, NE75%10000m1009hPa76%
26-Jun-2024 03:00Overcast Clouds30°C2 mph, SE100%10000m1009hPa64%
26-Jun-2024 06:00Overcast Clouds31°C7 mph, SE96%10000m1007hPa54%
26-Jun-2024 09:00Overcast Clouds31°C9 mph, S86%10000m1005hPa54%